Time;durP1;ratioP1;P1;durP2;ratioP2;P2;SDS_P1;SDS_P2;PMS_P1;PMS_P2;Temp;Humidity;BMP_temperature;BMP_pressure;BME280_temperature;BME280_humidity;BME280_pressure;Samples;Min_cycle;Max_cycle;Signal;HPM_P1;HPM_P2
2023/08/19 00:00:47;;;;;;;14.95;13.40;;;;;;;22.02;100.00;101162.78;5130635;28;20051;-37
2023/08/19 00:03:12;;;;;;;14.85;13.35;;;;;;;22.07;100.00;101172.91;5130551;27;20031;-37
2023/08/19 00:05:38;;;;;;;14.43;13.23;;;;;;;22.09;100.00;101165.16;5130739;27;20024;-37
2023/08/19 00:08:04;;;;;;;15.00;13.57;;;;;;;22.04;100.00;101160.53;5130504;27;20076;-37
2023/08/19 00:10:29;;;;;;;15.52;14.02;;;;;;;22.05;100.00;101169.63;5119891;27;20012;-37
2023/08/19 00:12:54;;;;;;;15.82;14.32;;;;;;;22.02;100.00;101159.22;5117794;28;20015;-37
2023/08/19 00:15:20;;;;;;;14.45;13.15;;;;;;;22.05;100.00;101158.59;5117437;28;20333;-37
2023/08/19 00:17:45;;;;;;;14.52;13.13;;;;;;;21.98;100.00;101155.41;5116828;28;20024;-37
2023/08/19 00:20:11;;;;;;;15.52;14.10;;;;;;;21.97;100.00;101156.53;5116815;28;20027;-37
2023/08/19 00:22:36;;;;;;;14.90;13.50;;;;;;;21.99;100.00;101154.28;5116854;27;20024;-37
2023/08/19 00:25:04;;;;;;;15.45;14.05;;;;;;;21.88;100.00;101148.16;5117509;28;20023;-37
2023/08/19 00:27:29;;;;;;;15.55;14.18;;;;;;;21.88;100.00;101167.41;5117023;28;20015;-38
2023/08/19 00:29:55;;;;;;;16.15;14.55;;;;;;;21.85;100.00;101152.28;5116708;28;20336;-38
2023/08/19 00:32:20;;;;;;;15.30;13.85;;;;;;;21.89;100.00;101170.97;5116723;28;20070;-38
2023/08/19 00:34:46;;;;;;;15.60;14.05;;;;;;;21.84;100.00;101152.59;5117222;28;20471;-38
2023/08/19 00:37:11;;;;;;;15.93;14.30;;;;;;;21.85;100.00;101170.75;5117075;28;20145;-38
2023/08/19 00:39:36;;;;;;;15.18;13.77;;;;;;;21.87;100.00;101164.97;5116462;28;20020;-38
2023/08/19 00:42:02;;;;;;;16.83;15.23;;;;;;;21.88;100.00;101161.09;5117279;28;20043;-38
2023/08/19 00:44:29;;;;;;;17.75;16.10;;;;;;;21.83;100.00;101168.31;5116325;27;20020;-37
2023/08/19 00:46:55;;;;;;;17.25;15.55;;;;;;;21.79;100.00;101153.50;5117172;28;20019;-36
2023/08/19 00:49:20;;;;;;;16.98;15.38;;;;;;;21.82;100.00;101163.94;5115975;28;20451;-37
2023/08/19 00:51:46;;;;;;;16.80;15.40;;;;;;;21.81;100.00;101161.44;5116845;28;20019;-37
2023/08/19 00:54:11;;;;;;;15.40;14.00;;;;;;;21.77;100.00;101158.50;5115920;28;20047;-37
2023/08/19 00:56:37;;;;;;;17.95;16.15;;;;;;;21.80;100.00;101152.38;5116692;28;20069;-37
2023/08/19 00:59:03;;;;;;;17.98;16.15;;;;;;;21.76;100.00;101156.84;5115749;28;20122;-37
2023/08/19 01:01:28;;;;;;;15.95;14.55;;;;;;;21.76;100.00;101158.78;5116580;28;20058;-37
2023/08/19 01:03:54;;;;;;;16.35;14.85;;;;;;;21.75;100.00;101162.66;5116053;28;20452;-37
2023/08/19 01:06:33;;;;;;;17.45;15.93;;;;;;;21.72;100.00;101153.06;5116020;28;20555;-37
2023/08/19 01:09:07;;;;;;;17.13;15.52;;;;;;;21.73;100.00;101151.94;5116231;28;20020;-37
2023/08/19 01:12:07;;;;;;;15.75;14.43;;;;;;;21.74;100.00;101153.56;5116137;28;20019;-37
2023/08/19 01:15:04;;;;;;;17.58;15.90;;;;;;;21.73;100.00;101151.94;5115800;28;20031;-37
2023/08/19 01:17:31;;;;;;;17.58;15.98;;;;;;;21.69;100.00;101145.41;5115985;28;20363;-37
2023/08/19 01:19:58;;;;;;;17.63;15.98;;;;;;;21.69;100.00;101144.59;5115704;28;20034;-37
2023/08/19 01:22:56;;;;;;;17.15;15.50;;;;;;;21.72;100.00;101152.25;5115280;28;20023;-37
2023/08/19 01:25:22;;;;;;;18.77;17.23;;;;;;;21.58;100.00;101132.91;5109617;28;20057;-37
2023/08/19 01:27:48;;;;;;;19.13;17.35;;;;;;;21.54;100.00;101138.19;5115165;28;20527;-37
2023/08/19 01:30:14;;;;;;;18.00;16.30;;;;;;;21.60;100.00;101141.69;5115256;28;20055;-37
2023/08/19 01:32:40;;;;;;;17.83;16.23;;;;;;;21.61;100.00;101143.31;5115448;28;20081;-37
2023/08/19 01:35:06;;;;;;;18.08;16.38;;;;;;;21.64;100.00;101136.41;5115406;28;20076;-37
2023/08/19 01:37:52;;;;;;;18.98;17.17;;;;;;;21.64;100.00;101128.16;5115316;28;20024;-37
2023/08/19 01:40:20;;;;;;;18.17;16.58;;;;;;;21.63;100.00;101130.09;5115882;28;20023;-37
2023/08/19 01:42:46;;;;;;;18.25;16.65;;;;;;;21.66;100.00;101121.22;5114975;28;20019;-37
2023/08/19 01:45:12;;;;;;;17.30;15.85;;;;;;;21.67;100.00;101114.63;5115156;28;20028;-37
2023/08/19 01:47:39;;;;;;;18.85;17.13;;;;;;;21.68;100.00;101116.25;5115208;28;20513;-37
2023/08/19 01:50:06;;;;;;;18.45;16.73;;;;;;;21.68;100.00;101101.69;5115011;28;20019;-37
2023/08/19 01:52:32;;;;;;;18.45;16.73;;;;;;;21.70;100.00;101107.69;5115388;28;20097;-37
2023/08/19 01:54:57;;;;;;;18.92;17.08;;;;;;;21.68;100.00;101105.25;5115189;28;20019;-37
2023/08/19 01:57:26;;;;;;;18.85;17.15;;;;;;;21.64;100.00;101095.94;5115145;28;20394;-37
2023/08/19 01:59:52;;;;;;;16.75;15.07;;;;;;;21.73;100.00;101118.09;5115263;28;20073;-37
2023/08/19 02:02:17;;;;;;;17.83;16.13;;;;;;;21.77;100.00;101111.72;5115107;28;20460;-37
2023/08/19 02:04:43;;;;;;;17.63;15.85;;;;;;;21.75;100.00;101110.34;5115614;28;20047;-37
2023/08/19 02:07:08;;;;;;;17.50;16.00;;;;;;;21.73;100.00;101101.59;5115068;28;20051;-37
2023/08/19 02:09:33;;;;;;;17.45;15.48;;;;;;;21.68;100.00;101096.19;5114739;28;20031;-37
2023/08/19 02:12:00;;;;;;;16.10;14.70;;;;;;;21.77;100.00;101103.44;5114738;28;20027;-37
2023/08/19 02:14:25;;;;;;;17.38;15.77;;;;;;;21.73;100.00;101104.34;5113423;28;20516;-37
2023/08/19 02:16:50;;;;;;;18.23;16.38;;;;;;;21.69;100.00;101095.06;5114922;28;20027;-37
2023/08/19 02:19:16;;;;;;;16.45;14.93;;;;;;;21.78;100.00;101104.25;5114565;28;20335;-37
2023/08/19 02:21:41;;;;;;;16.88;15.38;;;;;;;21.78;100.00;101102.31;5114910;28;20028;-37
2023/08/19 02:24:07;;;;;;;16.70;15.10;;;;;;;21.78;100.00;101099.56;5114503;28;20061;-37
2023/08/19 02:26:32;;;;;;;16.55;15.05;;;;;;;21.80;100.00;101094.56;5115072;28;20031;-37
2023/08/19 02:28:58;;;;;;;16.88;15.38;;;;;;;21.78;100.00;101099.56;5114138;28;20424;-37
2023/08/19 02:31:23;;;;;;;16.75;15.25;;;;;;;21.76;100.00;101090.78;5114422;28;20531;-37
2023/08/19 02:33:48;;;;;;;17.50;15.95;;;;;;;21.77;100.00;101092.44;5114151;28;20026;-37
2023/08/19 02:36:14;;;;;;;16.25;14.85;;;;;;;21.76;100.00;101088.03;5114379;28;20026;-37
2023/08/19 02:38:39;;;;;;;17.50;15.82;;;;;;;21.77;100.00;101086.94;5114503;28;20030;-37
2023/08/19 02:41:04;;;;;;;16.10;14.70;;;;;;;21.73;100.00;101068.56;5114827;28;20055;-37
2023/08/19 02:43:30;;;;;;;16.58;15.00;;;;;;;21.79;100.00;101084.69;5114278;28;20111;-37
2023/08/19 02:45:57;;;;;;;16.90;15.45;;;;;;;21.78;100.00;101079.50;5115033;28;20042;-37
2023/08/19 02:48:22;;;;;;;16.85;15.25;;;;;;;21.79;100.00;101087.44;5114719;28;20023;-37
2023/08/19 02:50:47;;;;;;;16.60;15.15;;;;;;;21.78;100.00;101077.56;5113810;28;20443;-37
2023/08/19 02:53:13;;;;;;;16.40;14.70;;;;;;;21.73;100.00;101065.81;5114138;28;20024;-37
2023/08/19 02:55:41;;;;;;;16.88;15.40;;;;;;;21.76;100.00;101073.44;5113745;28;20016;-37
2023/08/19 02:58:07;;;;;;;15.95;14.65;;;;;;;21.69;100.00;101065.59;5114534;28;20040;-37
2023/08/19 03:00:36;;;;;;;16.55;14.95;;;;;;;21.77;100.00;101078.69;5113989;28;20081;-37
2023/08/19 03:03:01;;;;;;;15.75;14.25;;;;;;;21.78;100.00;101074.81;5114079;28;20090;-37
2023/08/19 03:05:27;;;;;;;15.32;13.93;;;;;;;21.80;100.00;101080.81;5113769;28;20052;-37
2023/08/19 03:07:52;;;;;;;15.38;13.88;;;;;;;21.81;100.00;101078.88;5114772;28;20024;-37
2023/08/19 03:10:17;;;;;;;14.43;13.02;;;;;;;21.70;100.00;101069.16;5114207;28;20020;-37
2023/08/19 03:12:43;;;;;;;15.05;13.55;;;;;;;21.79;100.00;101068.16;5114204;28;20050;-37
2023/08/19 03:15:08;;;;;;;15.07;13.57;;;;;;;21.74;100.00;101073.75;5114178;28;20359;-37
2023/08/19 03:17:33;;;;;;;14.65;13.30;;;;;;;21.79;100.00;101073.69;5114613;28;20363;-37
2023/08/19 03:19:59;;;;;;;15.23;13.73;;;;;;;21.79;100.00;101073.69;5114108;28;20039;-37
2023/08/19 03:22:24;;;;;;;13.88;12.73;;;;;;;21.79;100.00;101072.88;5113871;28;20034;-37
2023/08/19 03:24:49;;;;;;;14.35;12.95;;;;;;;21.76;100.00;101063.25;5113793;28;20482;-37
2023/08/19 03:27:15;;;;;;;14.63;13.15;;;;;;;21.69;100.00;101056.53;5114650;28;20344;-37
2023/08/19 03:29:40;;;;;;;15.25;13.70;;;;;;;21.78;100.00;101061.03;5114556;28;20024;-37
2023/08/19 03:32:05;;;;;;;14.73;13.18;;;;;;;21.80;100.00;101064.28;5113443;28;20103;-37
2023/08/19 03:34:31;;;;;;;13.25;12.07;;;;;;;21.78;100.00;101061.03;5113708;28;20020;-37
2023/08/19 03:36:56;;;;;;;14.00;12.70;;;;;;;21.75;100.00;101067.13;5113423;28;20363;-37
2023/08/19 03:39:22;;;;;;;13.77;12.50;;;;;;;21.72;100.00;101061.44;5114097;28;20034;-37
2023/08/19 03:41:47;;;;;;;13.32;12.02;;;;;;;21.79;100.00;101073.69;5113686;28;20024;-37
2023/08/19 03:44:12;;;;;;;12.35;11.23;;;;;;;21.80;100.00;101075.31;5113705;28;20062;-37
2023/08/19 03:46:38;;;;;;;15.65;12.45;;;;;;;21.79;100.00;101072.88;5117761;28;20027;-37
2023/08/19 03:49:04;;;;;;;12.15;11.05;;;;;;;21.76;100.00;101068.75;5118266;28;20443;-37
2023/08/19 03:51:30;;;;;;;12.02;11.02;;;;;;;21.81;100.00;101079.72;5117448;28;20024;-37
2023/08/19 03:53:55;;;;;;;12.68;11.48;;;;;;;21.82;100.00;101080.53;5117582;28;20341;-37
2023/08/19 03:56:21;;;;;;;11.73;10.63;;;;;;;21.73;100.00;101052.06;5117644;28;20034;-37
2023/08/19 03:58:46;;;;;;;12.50;11.30;;;;;;;21.80;100.00;101069.81;5117428;28;20055;-37
2023/08/19 04:01:12;;;;;;;13.02;11.45;;;;;;;21.76;100.00;101068.75;5118087;28;20028;-37
2023/08/19 04:03:37;;;;;;;12.38;11.27;;;;;;;21.71;100.00;101052.34;5117215;28;20019;-38
2023/08/19 04:06:03;;;;;;;12.65;11.18;;;;;;;21.77;100.00;101059.41;5118016;28;20432;-37
2023/08/19 04:08:29;;;;;;;12.25;10.93;;;;;;;21.77;100.00;101062.16;5117655;28;20051;-37
2023/08/19 04:10:55;;;;;;;11.93;10.73;;;;;;;21.77;100.00;101073.19;5117364;28;20029;-38
2023/08/19 04:13:20;;;;;;;11.82;10.73;;;;;;;21.75;100.00;101075.38;5117663;28;20499;-37
2023/08/19 04:15:45;;;;;;;11.88;10.77;;;;;;;21.68;100.00;101065.91;5117577;28;20019;-37
2023/08/19 04:18:11;;;;;;;11.60;10.60;;;;;;;21.70;100.00;101075.47;5117153;28;20027;-37
2023/08/19 04:20:39;;;;;;;12.23;10.93;;;;;;;21.72;100.00;101073.25;5116628;28;20023;-38
2023/08/19 04:23:05;;;;;;;11.82;10.73;;;;;;;21.68;100.00;101063.97;5116842;28;20026;-38
2023/08/19 04:25:31;;;;;;;11.70;10.65;;;;;;;21.68;100.00;101068.66;5116715;28;20023;-38
2023/08/19 04:27:56;;;;;;;11.32;10.32;;;;;;;21.74;100.00;101086.72;5117318;28;20397;-38
2023/08/19 04:30:22;;;;;;;11.40;10.27;;;;;;;21.71;100.00;101081.78;5117481;28;20124;-37
2023/08/19 04:32:47;;;;;;;10.80;9.80;;;;;;;21.68;100.00;101083.22;5116620;27;20050;-38
2023/08/19 04:35:12;;;;;;;10.23;9.38;;;;;;;21.71;100.00;101087.28;5116607;28;20443;-37
2023/08/19 04:37:38;;;;;;;11.90;10.77;;;;;;;21.71;100.00;101088.09;5117056;28;20111;-37
2023/08/19 04:40:09;;;;;;;11.25;10.20;;;;;;;21.66;100.00;101079.94;5116007;28;20019;-37
2023/08/19 04:42:35;;;;;;;10.30;9.30;;;;;;;21.69;100.00;101084.84;5117014;27;20401;-37
2023/08/19 04:45:01;;;;;;;13.48;10.38;;;;;;;21.66;100.00;101087.38;5116055;27;20023;-37
2023/08/19 04:47:26;;;;;;;11.02;10.07;;;;;;;21.67;100.00;101091.75;5117004;28;20036;-37
2023/08/19 04:49:51;;;;;;;12.35;10.07;;;;;;;21.62;100.00;101083.59;5116237;28;20076;-37
2023/08/19 04:52:17;;;;;;;12.07;10.85;;;;;;;21.56;100.00;101080.09;5116642;28;20015;-37
2023/08/19 04:54:42;;;;;;;11.63;10.63;;;;;;;21.65;100.00;101096.75;5115924;28;20064;-37
2023/08/19 04:57:07;;;;;;;12.98;10.73;;;;;;;21.64;100.00;101087.69;5116937;28;20023;-37
2023/08/19 04:59:33;;;;;;;11.05;10.05;;;;;;;21.57;100.00;101074.31;5116464;28;20050;-38
2023/08/19 05:01:58;;;;;;;10.57;9.68;;;;;;;21.60;100.00;101075.63;5116117;28;20061;-38
2023/08/19 05:04:23;;;;;;;10.63;9.73;;;;;;;21.64;100.00;101082.19;5116531;28;20023;-38
2023/08/19 05:06:49;;;;;;;13.35;9.55;;;;;;;21.69;100.00;101089.53;5116322;28;20024;-38
2023/08/19 05:09:14;;;;;;;11.38;10.32;;;;;;;21.67;100.00;101081.59;5116795;27;20428;-38
2023/08/19 05:11:39;;;;;;;10.55;9.60;;;;;;;21.69;100.00;101081.28;5115841;28;20100;-36
2023/08/19 05:14:05;;;;;;;10.40;9.40;;;;;;;21.66;100.00;101079.13;5115822;28;20024;-37
2023/08/19 05:16:30;;;;;;;10.18;9.18;;;;;;;21.69;100.00;101093.09;5116185;28;20031;-37
2023/08/19 05:19:16;;;;;;;11.98;9.15;;;;;;;21.75;100.00;101102.91;5115879;28;20098;-37
2023/08/19 05:21:41;;;;;;;10.07;9.18;;;;;;;21.58;100.00;101075.13;5116267;28;20015;-37
2023/08/19 05:24:07;;;;;;;9.73;8.82;;;;;;;21.76;100.00;101096.28;5115620;28;20337;-37
2023/08/19 05:26:33;;;;;;;12.07;8.73;;;;;;;21.76;100.00;101085.28;5116204;28;20047;-37
2023/08/19 05:28:59;;;;;;;9.07;8.27;;;;;;;21.78;100.00;101094.06;5115590;27;20062;-37
2023/08/19 05:31:24;;;;;;;9.40;8.45;;;;;;;21.76;100.00;101096.28;5116073;28;20023;-37
2023/08/19 05:33:50;;;;;;;9.85;8.75;;;;;;;21.78;100.00;101099.56;5115983;28;20025;-37
2023/08/19 05:36:15;;;;;;;10.10;8.70;;;;;;;21.75;100.00;101094.66;5115489;28;20024;-37
2023/08/19 05:38:40;;;;;;;9.00;7.93;;;;;;;21.84;100.00;101116.81;5114997;28;20118;-37
2023/08/19 05:41:06;;;;;;;9.88;8.52;;;;;;;21.78;100.00;101104.25;5115303;28;20023;-37
2023/08/19 05:43:31;;;;;;;12.30;8.95;;;;;;;21.87;100.00;101107.97;5115707;28;20463;-37
2023/08/19 05:45:58;;;;;;;9.27;8.38;;;;;;;21.88;100.00;101114.28;5114535;28;20019;-38
2023/08/19 05:48:23;;;;;;;8.55;7.80;;;;;;;21.90;100.00;101109.28;5115148;28;20024;-37
2023/08/19 05:50:49;;;;;;;8.82;7.88;;;;;;;21.87;100.00;101098.91;5115592;28;20023;-38
2023/08/19 05:53:14;;;;;;;9.35;8.50;;;;;;;21.91;100.00;101108.16;5115332;28;20023;-37
2023/08/19 05:55:39;;;;;;;9.48;8.50;;;;;;;21.95;100.00;101120.22;5114646;28;20046;-39
2023/08/19 05:58:05;;;;;;;9.15;7.60;;;;;;;21.88;100.00;101100.53;5115387;28;20099;-37
2023/08/19 06:00:30;;;;;;;10.40;8.85;;;;;;;21.90;100.00;101092.78;5114888;28;20024;-37
2023/08/19 06:02:55;;;;;;;9.48;8.43;;;;;;;21.95;100.00;101087.19;5115247;28;20023;-37
2023/08/19 06:05:21;;;;;;;9.25;7.95;;;;;;;22.03;100.00;101103.03;5114545;28;20023;-36
2023/08/19 06:07:47;;;;;;;8.45;7.50;;;;;;;22.05;100.00;101117.28;5114342;28;20031;-36
2023/08/19 06:10:13;;;;;;;8.48;7.50;;;;;;;22.08;100.00;101125.78;5115256;28;20011;-37
2023/08/19 06:12:38;;;;;;;9.52;7.40;;;;;;;22.06;100.00;101121.72;5115070;28;20019;-36
2023/08/19 06:15:04;;;;;;;8.20;7.40;;;;;;;22.15;100.00;101122.66;5114588;28;20045;-36
2023/08/19 06:17:30;;;;;;;8.65;7.63;;;;;;;22.19;100.00;101137.47;5115098;28;20027;-36
2023/08/19 06:19:55;;;;;;;7.93;7.13;;;;;;;22.24;100.00;101126.34;5114323;28;20405;-36
2023/08/19 06:22:21;;;;;;;8.32;7.50;;;;;;;22.31;100.00;101128.72;5114798;28;20057;-37
2023/08/19 06:24:46;;;;;;;11.40;7.78;;;;;;;22.36;100.00;101132.22;5114414;28;20127;-37
2023/08/19 06:27:11;;;;;;;8.55;6.80;;;;;;;22.39;100.00;101130.78;5114508;27;20019;-37
2023/08/19 06:29:37;;;;;;;8.25;6.47;;;;;;;22.35;100.00;101113.22;5114478;28;20126;-37
2023/08/19 06:32:02;;;;;;;6.45;5.82;;;;;;;22.50;100.00;101135.00;5114455;28;20148;-37
2023/08/19 06:34:28;;;;;;;7.43;6.70;;;;;;;22.51;100.00;101133.06;5114303;28;20043;-37
2023/08/19 06:36:57;;;;;;;7.22;6.30;;;;;;;22.52;100.00;101138.25;5114352;28;20029;-37
2023/08/19 06:39:28;;;;;;;6.47;5.82;;;;;;;22.60;100.00;101142.25;5114121;28;20016;-37
2023/08/19 06:42:04;;;;;;;7.20;6.40;;;;;;;22.71;100.00;101151.13;5114817;28;20030;-37
2023/08/19 06:44:32;;;;;;;7.18;5.78;;;;;;;22.74;100.00;101151.34;5114247;28;20118;-36
2023/08/19 06:47:00;;;;;;;6.88;5.82;;;;;;;22.82;100.00;101150.63;5114468;28;20019;-37
2023/08/19 06:49:26;;;;;;;6.78;6.03;;;;;;;22.97;100.00;101157.00;5113843;28;20028;-37
2023/08/19 06:51:51;;;;;;;7.93;6.13;;;;;;;23.05;100.00;101156.28;5114098;28;20046;-36
2023/08/19 06:54:17;;;;;;;9.52;6.10;;;;;;;23.12;100.00;101159.44;5114595;28;20040;-36
2023/08/19 06:56:46;;;;;;;7.80;6.05;;;;;;;23.10;100.00;101153.41;5113788;28;20022;-37
2023/08/19 06:59:14;;;;;;;7.82;6.05;;;;;;;23.19;100.00;101164.56;5114158;28;20043;-37
2023/08/19 07:01:42;;;;;;;7.68;6.20;;;;;;;23.19;100.00;101170.88;5114659;28;20141;-37
2023/08/19 07:04:09;;;;;;;9.25;6.53;;;;;;;23.15;100.00;101158.81;5114509;28;20036;-37
2023/08/19 07:06:36;;;;;;;8.48;5.80;;;;;;;23.22;100.00;101173.00;5113691;28;20023;-37
2023/08/19 07:09:08;;;;;;;8.02;6.18;;;;;;;23.26;100.00;101179.53;5113605;28;20027;-37
2023/08/19 07:11:33;;;;;;;6.75;5.30;;;;;;;23.28;100.00;101177.31;5114470;28;20016;-37
2023/08/19 07:13:59;;;;;;;6.57;5.25;;;;;;;23.23;100.00;101162.78;5114483;28;20016;-37
2023/08/19 07:16:27;;;;;;;7.38;6.03;;;;;;;23.33;100.00;101179.16;5114223;28;20024;-38
2023/08/19 07:18:54;;;;;;;7.95;5.40;;;;;;;23.44;100.00;101177.78;5113786;28;20472;-37
2023/08/19 07:21:23;;;;;;;7.60;5.70;;;;;;;23.55;100.00;101179.19;5117697;28;20107;-37
2023/08/19 07:23:49;;;;;;;9.05;5.88;;;;;;;23.64;100.00;101169.09;5117918;28;20368;-37
2023/08/19 07:26:16;;;;;;;8.25;4.85;;;;;;;23.75;100.00;101169.66;5118218;28;20092;-37
2023/08/19 07:28:42;;;;;;;5.60;4.80;;;;;;;23.93;100.00;101175.34;5117731;28;20455;-37
2023/08/19 07:31:09;;;;;;;6.05;4.47;;;;;;;24.15;100.00;101189.13;5117861;28;20055;-37
2023/08/19 07:33:36;;;;;;;5.50;4.90;;;;;;;24.28;100.00;101185.50;5118591;28;20438;-37
2023/08/19 07:36:01;;;;;;;5.75;4.78;;;;;;;24.43;100.00;101183.50;5118014;28;20023;-37
2023/08/19 07:38:26;;;;;;;5.18;4.68;;;;;;;24.54;100.00;101193.97;5117571;28;20347;-38
2023/08/19 07:40:52;;;;;;;6.03;4.38;;;;;;;24.58;100.00;101172.03;5117784;28;20421;-37
2023/08/19 07:43:18;;;;;;;8.15;4.53;;;;;;;24.73;100.00;101199.28;5117582;28;20024;-37
2023/08/19 07:45:43;;;;;;;7.40;4.60;;;;;;;24.81;100.00;101220.63;5117827;28;20047;-37
2023/08/19 07:48:08;;;;;;;5.65;3.85;;;;;;;24.88;100.00;101209.91;5118378;27;20058;-37
2023/08/19 07:50:34;;;;;;;7.38;3.97;;;;;;;24.95;100.00;101230.78;5117200;28;20027;-37
2023/08/19 07:52:59;;;;;;;5.60;4.13;;;;;;;24.99;100.00;101226.25;5117963;28;20027;-37
2023/08/19 07:55:25;;;;;;;5.85;4.38;;;;;;;25.03;100.00;101210.63;5117899;28;20034;-37
2023/08/19 07:57:50;;;;;;;6.70;4.20;;;;;;;25.09;100.00;101215.75;5118140;28;20430;-37
2023/08/19 08:00:15;;;;;;;6.78;4.07;;;;;;;25.15;100.00;101210.88;5117073;28;20471;-37
2023/08/19 08:02:41;;;;;;;9.77;4.40;;;;;;;25.14;100.00;101215.59;5117007;28;20030;-37
2023/08/19 08:05:07;;;;;;;5.55;4.05;;;;;;;25.16;100.00;101229.13;5117179;28;20059;-37
2023/08/19 08:07:32;;;;;;;3.80;3.40;;;;;;;25.12;100.00;101217.84;5117157;27;20102;-37
2023/08/19 08:09:57;;;;;;;5.68;4.00;;;;;;;25.13;100.00;101227.81;5116823;28;20069;-37
2023/08/19 08:12:23;;;;;;;6.57;4.03;;;;;;;25.07;100.00;101203.34;5117358;28;20519;-37
2023/08/19 08:14:48;;;;;;;7.05;4.35;;;;;;;25.03;100.00;101196.81;5116951;28;20042;-37
2023/08/19 08:17:14;;;;;;;5.18;4.63;;;;;;;24.98;100.00;101196.94;5117461;28;20024;-37
2023/08/19 08:19:39;;;;;;;8.88;4.53;;;;;;;24.98;100.00;101206.06;5116771;28;20387;-37
2023/08/19 08:22:05;;;;;;;9.50;4.50;;;;;;;25.09;100.00;101228.78;5116615;28;20023;-37
2023/08/19 08:24:30;;;;;;;5.57;4.53;;;;;;;25.08;100.00;101230.69;5116877;28;20027;-37
2023/08/19 08:26:56;;;;;;;5.43;4.40;;;;;;;25.04;100.00;101228.88;5117295;28;20023;-38
2023/08/19 08:29:21;;;;;;;6.13;4.55;;;;;;;25.05;100.00;101230.50;5116694;28;20169;-37
2023/08/19 08:31:46;;;;;;;5.93;4.40;;;;;;;25.02;100.00;101242.22;5116215;28;20023;-37
2023/08/19 08:34:12;;;;;;;5.57;4.32;;;;;;;25.01;100.00;101241.41;5116914;28;20016;-37
2023/08/19 08:36:37;;;;;;;6.07;5.03;;;;;;;25.03;100.00;101252.13;5116891;28;20024;-37
2023/08/19 08:39:03;;;;;;;5.72;4.43;;;;;;;25.01;100.00;101260.75;5116993;28;20061;-37
2023/08/19 08:41:28;;;;;;;6.03;4.30;;;;;;;25.01;100.00;101268.25;5117339;28;20466;-37
2023/08/19 08:43:55;;;;;;;5.25;4.63;;;;;;;24.95;100.00;101252.94;5116424;27;20048;-37
2023/08/19 08:46:23;;;;;;;7.07;4.43;;;;;;;24.91;100.00;101272.91;5116906;28;20054;-37
2023/08/19 08:48:51;;;;;;;5.88;4.40;;;;;;;24.90;100.00;101279.59;5116654;28;20107;-37
2023/08/19 08:51:18;;;;;;;5.05;4.57;;;;;;;24.84;100.00;101274.50;5116234;28;20029;-37
2023/08/19 08:53:45;;;;;;;6.45;4.30;;;;;;;24.85;100.00;101288.03;5116115;28;20027;-37
2023/08/19 08:56:13;;;;;;;6.65;4.78;;;;;;;24.83;100.00;101284.72;5116399;28;20024;-37
2023/08/19 08:58:38;;;;;;;5.45;4.43;;;;;;;24.83;100.00;101290.25;5115821;28;20040;-37
2023/08/19 09:01:04;;;;;;;6.47;4.82;;;;;;;24.82;100.00;101288.63;5115711;28;20353;-37
2023/08/19 09:03:32;;;;;;;9.55;4.88;;;;;;;24.78;100.00;101289.59;5114576;28;20055;-37
2023/08/19 09:06:06;;;;;;;4.65;4.13;;;;;;;24.78;100.00;101293.16;5115986;28;20510;-37
2023/08/19 09:08:40;;;;;;;6.72;4.80;;;;;;;24.72;100.00;101286.16;5115773;28;20475;-37
2023/08/19 09:11:10;;;;;;;6.25;4.43;;;;;;;24.81;100.00;101303.63;5117009;28;20352;-37
2023/08/19 09:13:37;;;;;;;6.80;4.55;;;;;;;24.86;100.00;101311.78;5115875;28;20024;-37
2023/08/19 09:16:03;;;;;;;6.55;4.78;;;;;;;24.93;100.00;101319.63;5115823;28;20094;-37
2023/08/19 09:18:29;;;;;;;7.43;4.60;;;;;;;24.95;100.00;101314.59;5116350;28;20110;-37
2023/08/19 09:20:54;;;;;;;5.75;5.07;;;;;;;25.13;100.00;101321.06;5115362;28;20443;-37
2023/08/19 09:23:20;;;;;;;6.10;4.90;;;;;;;25.24;100.00;101311.38;5115611;28;20076;-37
2023/08/19 09:25:46;;;;;;;5.65;5.13;;;;;;;25.37;100.00;101318.72;5115874;28;20024;-37
2023/08/19 09:28:17;;;;;;;8.80;5.00;;;;;;;25.53;100.00;101326.63;5116130;28;20027;-38
2023/08/19 09:30:42;;;;;;;9.55;5.35;;;;;;;25.72;100.00;101337.41;5115452;28;20058;-37
2023/08/19 09:33:07;;;;;;;10.15;5.63;;;;;;;25.75;100.00;101336.78;5115513;28;20428;-37
2023/08/19 09:35:36;;;;;;;6.88;5.50;;;;;;;25.81;100.00;101335.53;5115642;28;20019;-37
2023/08/19 09:38:02;;;;;;;6.93;6.22;;;;;;;25.96;100.00;101343.38;5115434;28;20027;-37
2023/08/19 09:40:27;;;;;;;9.63;6.13;;;;;;;26.01;100.00;101350.72;5115285;28;20024;-37
2023/08/19 09:42:55;;;;;;;10.20;5.63;;;;;;;26.03;100.00;101346.50;5114165;27;20019;-37
2023/08/19 09:45:22;;;;;;;7.72;6.15;;;;;;;26.18;100.00;101357.13;5115193;28;20026;-37
2023/08/19 09:47:52;;;;;;;9.57;6.05;;;;;;;26.33;100.00;101361.38;5115506;28;20045;-37
2023/08/19 09:50:18;;;;;;;8.20;6.50;;;;;;;26.40;100.00;101369.19;5115132;28;20024;-37
2023/08/19 09:52:54;;;;;;;8.85;6.50;;;;;;;26.34;100.00;101360.22;5115160;28;20447;-37
2023/08/19 09:55:24;;;;;;;7.07;5.65;;;;;;;26.44;100.00;101372.97;5114974;28;20019;-37
2023/08/19 09:57:49;;;;;;;9.73;6.05;;;;;;;26.69;100.00;101369.41;5115168;28;20038;-37
2023/08/19 10:00:15;;;;;;;7.80;6.38;;;;;;;26.90;100.00;101383.41;5115463;28;20371;-37
2023/08/19 10:02:40;;;;;;;6.53;5.85;;;;;;;26.96;100.00;101384.06;5115447;28;20023;-37
2023/08/19 10:05:06;;;;;;;6.07;5.47;;;;;;;27.19;100.00;101384.72;5115322;28;20054;-37
2023/08/19 10:07:32;;;;;;;8.57;5.93;;;;;;;27.39;100.00;101366.50;5115646;28;20443;-37
2023/08/19 10:10:04;;;;;;;7.15;5.88;;;;;;;27.92;100.00;101381.84;5114797;28;20068;-37
2023/08/19 10:12:33;;;;;;;9.60;6.40;;;;;;;28.21;100.00;101386.56;5114753;28;20374;-37
2023/08/19 10:14:59;;;;;;;7.38;6.07;;;;;;;28.24;100.00;101383.91;5114677;28;20059;-37
2023/08/19 10:17:27;;;;;;;8.32;6.05;;;;;;;28.22;100.00;101377.06;5114914;27;20073;-37
2023/08/19 10:20:02;;;;;;;9.25;6.30;;;;;;;28.19;100.00;101392.44;5115020;28;20103;-37
2023/08/19 10:22:31;;;;;;;8.23;6.70;;;;;;;28.07;100.00;101386.81;5114568;28;20029;-37
2023/08/19 10:24:57;;;;;;;8.27;6.10;;;;;;;27.96;100.00;101403.06;5114173;28;20099;-37
2023/08/19 10:27:23;;;;;;;9.85;5.97;;;;;;;27.76;100.00;101395.47;5115011;28;20027;-37
2023/08/19 10:29:56;;;;;;;7.57;6.18;;;;;;;27.79;100.00;101411.47;5114420;28;20374;-37
2023/08/19 10:32:26;;;;;;;7.93;5.90;;;;;;;27.67;100.00;101406.59;5114708;28;20030;-37
2023/08/19 10:35:09;;;;;;;6.55;5.90;;;;;;;27.63;100.00;101400.06;5114116;28;20059;-37
2023/08/19 10:37:39;;;;;;;7.57;5.85;;;;;;;27.60;100.00;101411.84;5114854;28;20467;-37
2023/08/19 10:40:08;;;;;;;6.35;5.55;;;;;;;27.63;100.00;101415.94;5114022;28;20030;-38
2023/08/19 10:42:33;;;;;;;6.50;5.90;;;;;;;27.69;100.00;101420.97;5113942;28;20030;-37
2023/08/19 10:44:59;;;;;;;7.15;5.95;;;;;;;27.95;100.00;101418.09;5113881;28;20055;-37
2023/08/19 10:47:24;;;;;;;6.60;5.40;;;;;;;28.09;100.00;101428.97;5114475;28;20040;-37
2023/08/19 10:49:50;;;;;;;7.55;5.63;;;;;;;28.08;100.00;101437.66;5114753;28;20023;-37
2023/08/19 10:52:21;;;;;;;10.20;6.13;;;;;;;27.88;100.00;101440.03;5114488;28;20028;-38
2023/08/19 10:54:47;;;;;;;5.53;4.90;;;;;;;27.66;100.00;101448.59;5113954;28;20019;-37
2023/08/19 10:57:24;;;;;;;5.20;4.70;;;;;;;27.42;100.00;101466.63;5114027;28;20130;-37
2023/08/19 10:59:58;;;;;;;5.18;4.30;;;;;;;27.10;100.00;101470.75;5113969;28;20142;-37
2023/08/19 11:02:25;;;;;;;5.32;3.15;;;;;;;26.86;98.05;101481.50;5113946;28;20525;-37
2023/08/19 11:04:51;;;;;;;3.72;3.03;;;;;;;26.65;98.33;101487.72;5114220;28;20054;-37
2023/08/19 11:07:17;;;;;;;6.05;3.38;;;;;;;26.55;99.42;101492.72;5114251;28;20416;-37